createdAt,value
2023-04-26T00:00:30.217Z,0.10
2023-04-26T00:02:58.714Z,0.00
2023-04-26T00:05:27.113Z,-0.10
2023-04-26T00:07:53.978Z,-0.20
2023-04-26T00:10:21.010Z,-0.30
2023-04-26T00:12:47.778Z,-0.30
2023-04-26T00:15:14.626Z,-0.30
2023-04-26T00:17:41.443Z,-0.40
2023-04-26T00:20:08.974Z,-0.40
2023-04-26T00:22:38.313Z,-0.50
2023-04-26T00:25:06.146Z,-0.60
2023-04-26T00:27:33.061Z,-0.50
2023-04-26T00:29:59.753Z,-0.40
2023-04-26T00:32:26.528Z,-0.40
2023-04-26T00:34:53.333Z,-0.40
2023-04-26T00:37:20.133Z,-0.50
2023-04-26T00:39:48.235Z,-0.60
2023-04-26T00:42:15.050Z,-0.60
2023-04-26T00:44:41.791Z,-0.50
2023-04-26T00:47:08.646Z,-0.50
2023-04-26T00:49:35.471Z,-0.60
2023-04-26T00:52:02.729Z,-0.70
2023-04-26T00:54:29.697Z,-0.70
2023-04-26T00:56:58.011Z,-0.70
2023-04-26T00:59:26.189Z,-0.60
2023-04-26T01:01:53.261Z,-0.60
2023-04-26T01:04:20.364Z,-0.70
2023-04-26T01:06:47.686Z,-0.60
2023-04-26T01:09:14.590Z,-0.70
2023-04-26T01:11:42.965Z,-0.70
2023-04-26T01:14:11.421Z,-0.70
2023-04-26T01:16:38.619Z,-0.60
2023-04-26T01:19:09.619Z,-0.60
2023-04-26T01:21:36.416Z,-0.60
2023-04-26T01:24:05.101Z,-0.70
2023-04-26T01:26:31.920Z,-0.70
2023-04-26T01:29:00.742Z,-0.80
2023-04-26T01:31:27.531Z,-0.90
2023-04-26T01:33:54.381Z,-0.90
2023-04-26T01:36:21.126Z,-1.00
2023-04-26T01:38:48.070Z,-1.00
2023-04-26T01:41:16.192Z,-1.00
2023-04-26T01:43:42.907Z,-1.00
2023-04-26T01:46:09.710Z,-1.10
2023-04-26T01:48:36.445Z,-1.10
2023-04-26T01:51:03.213Z,-1.00
2023-04-26T01:53:29.973Z,-0.80
2023-04-26T01:55:56.738Z,-0.60
2023-04-26T01:58:24.877Z,-0.50
2023-04-26T02:00:51.638Z,-0.40
2023-04-26T02:03:18.510Z,-0.40
2023-04-26T02:05:45.388Z,-0.40
2023-04-26T02:08:12.206Z,-0.50
2023-04-26T02:10:38.969Z,-0.60
2023-04-26T02:13:08.205Z,-0.50
2023-04-26T02:15:36.325Z,-0.60
2023-04-26T02:18:03.422Z,-0.60
2023-04-26T02:20:30.221Z,-0.50
2023-04-26T02:22:57.204Z,-0.50
2023-04-26T02:25:23.967Z,-0.50
2023-04-26T02:27:50.950Z,-0.50
2023-04-26T02:30:17.654Z,-0.60
2023-04-26T02:32:46.059Z,-0.60
2023-04-26T02:35:13.028Z,-0.60
2023-04-26T02:37:39.782Z,-0.60
2023-04-26T02:40:08.156Z,-0.60
2023-04-26T02:42:34.933Z,-0.60
2023-04-26T02:45:01.651Z,-0.60
2023-04-26T02:47:28.396Z,-0.40
2023-04-26T02:49:56.553Z,-0.50
2023-04-26T02:52:23.318Z,-0.60
2023-04-26T02:54:50.151Z,-0.70
2023-04-26T02:57:16.903Z,-0.70
2023-04-26T02:59:43.612Z,-0.70
2023-04-26T03:02:10.810Z,-0.70
2023-04-26T03:04:37.564Z,-0.70
2023-04-26T03:07:05.871Z,-0.60
2023-04-26T03:09:32.669Z,-0.70
2023-04-26T03:11:59.466Z,-0.60
2023-04-26T03:14:26.206Z,-0.70
2023-04-26T03:16:53.007Z,-0.80
2023-04-26T03:19:19.792Z,-0.80
2023-04-26T03:21:46.689Z,-0.80
2023-04-26T03:24:14.783Z,-0.80
2023-04-26T03:26:41.503Z,-0.90
2023-04-26T03:29:08.250Z,-1.00
2023-04-26T03:31:35.073Z,-1.10
2023-04-26T03:34:01.804Z,-1.10
2023-04-26T03:36:28.515Z,-1.00
2023-04-26T03:38:55.343Z,-0.90
2023-04-26T03:41:23.482Z,-0.90
2023-04-26T03:43:50.263Z,-1.00
2023-04-26T03:46:17.065Z,-1.10
2023-04-26T03:48:43.929Z,-1.20
2023-04-26T03:51:11.023Z,-1.20
2023-04-26T03:53:37.783Z,-1.20
2023-04-26T03:56:04.673Z,-1.20
2023-04-26T03:58:33.123Z,-1.20
2023-04-26T04:00:59.848Z,-1.30
2023-04-26T04:03:26.809Z,-1.30
2023-04-26T04:05:53.674Z,-1.40
2023-04-26T04:08:20.391Z,-1.40
2023-04-26T04:10:47.276Z,-1.40
2023-04-26T04:13:14.082Z,-1.50
2023-04-26T04:15:42.265Z,-1.40
2023-04-26T04:18:09.198Z,-1.40
2023-04-26T04:20:36.017Z,-1.40
2023-04-26T04:23:02.754Z,-1.40
2023-04-26T04:25:29.604Z,-1.40
2023-04-26T04:27:57.605Z,-1.50
2023-04-26T04:30:24.541Z,-1.40
2023-04-26T04:32:52.658Z,-1.40
2023-04-26T04:35:19.471Z,-1.40
2023-04-26T04:37:46.244Z,-1.40
2023-04-26T04:40:13.383Z,-1.40
2023-04-26T04:42:40.291Z,-1.30
2023-04-26T04:45:08.426Z,-1.30
2023-04-26T04:47:35.244Z,-1.30
2023-04-26T04:50:04.919Z,-1.20
2023-04-26T04:52:31.956Z,-1.10
2023-04-26T04:54:58.676Z,-1.00
2023-04-26T04:57:25.674Z,-0.90
2023-04-26T04:59:52.440Z,-0.70
2023-04-26T05:02:19.923Z,-0.60
2023-04-26T05:04:46.893Z,-0.50
2023-04-26T05:07:15.026Z,-0.50
2023-04-26T05:09:42.115Z,-0.40
2023-04-26T05:12:08.844Z,-0.40
2023-04-26T05:14:35.581Z,-0.20
2023-04-26T05:17:02.515Z,0.00
2023-04-26T05:19:29.269Z,0.20
2023-04-26T05:21:56.674Z,0.40
2023-04-26T05:24:24.815Z,0.60
2023-04-26T05:26:51.556Z,0.80
2023-04-26T05:29:18.367Z,1.00
2023-04-26T05:31:45.163Z,1.20
2023-04-26T05:34:11.959Z,1.50
2023-04-26T05:36:38.741Z,1.80
2023-04-26T05:39:05.479Z,2.00
2023-04-26T05:41:33.686Z,2.20
2023-04-26T05:44:00.452Z,2.30
2023-04-26T05:46:27.275Z,2.40
2023-04-26T05:48:54.088Z,2.90
2023-04-26T05:51:21.108Z,4.50
2023-04-26T05:53:47.902Z,5.50
2023-04-26T05:56:14.814Z,6.10
2023-04-26T05:58:45.720Z,6.40
2023-04-26T06:01:12.463Z,6.40
2023-04-26T06:03:39.420Z,6.70
2023-04-26T06:06:06.767Z,6.60
2023-04-26T06:08:33.745Z,7.10
2023-04-26T06:11:00.507Z,7.50
2023-04-26T06:13:27.269Z,6.90
2023-04-26T06:15:55.393Z,6.50
2023-04-26T06:18:22.140Z,6.20
2023-04-26T06:20:48.942Z,6.90
2023-04-26T06:23:15.645Z,7.80
2023-04-26T06:25:42.478Z,8.80
2023-04-26T06:28:09.219Z,9.70
2023-04-26T06:30:35.931Z,9.30
2023-04-26T06:33:04.202Z,9.10
2023-04-26T06:35:30.968Z,8.70
2023-04-26T06:37:57.859Z,8.50
2023-04-26T06:40:24.623Z,8.80
2023-04-26T06:42:51.480Z,9.50
2023-04-26T06:45:18.263Z,10.20
2023-04-26T06:47:45.117Z,11.20
2023-04-26T06:50:13.321Z,11.70
2023-04-26T06:52:40.082Z,11.80
2023-04-26T06:55:08.062Z,11.50
2023-04-26T06:57:34.865Z,11.00
2023-04-26T07:00:01.762Z,10.40
2023-04-26T07:02:28.651Z,9.70
2023-04-26T07:04:55.756Z,9.00
2023-04-26T07:07:27.045Z,8.90
2023-04-26T07:09:53.787Z,8.60
2023-04-26T07:12:20.546Z,9.20
2023-04-26T07:14:47.279Z,9.30
2023-04-26T07:17:14.038Z,9.10
2023-04-26T07:19:40.735Z,9.10
2023-04-26T07:22:07.544Z,9.10
2023-04-26T07:24:35.665Z,8.80
2023-04-26T07:27:02.491Z,8.50
2023-04-26T07:29:29.225Z,8.40
2023-04-26T07:31:55.982Z,8.60
2023-04-26T07:34:22.872Z,8.80
2023-04-26T07:36:49.602Z,8.80
2023-04-26T07:39:16.359Z,8.80
2023-04-26T07:41:44.426Z,8.70
2023-04-26T07:44:11.234Z,8.80
2023-04-26T07:46:37.964Z,9.20
2023-04-26T07:49:04.678Z,9.20
2023-04-26T07:51:31.423Z,9.80
2023-04-26T07:53:58.162Z,10.10
2023-04-26T07:56:24.907Z,9.90
2023-04-26T07:58:54.047Z,8.60
2023-04-26T08:01:20.800Z,8.30
2023-04-26T08:03:47.822Z,8.40
2023-04-26T08:06:14.929Z,8.10
2023-04-26T08:08:42.674Z,8.00
2023-04-26T08:11:09.560Z,7.80
2023-04-26T08:13:36.325Z,7.60
2023-04-26T08:16:04.821Z,7.10
2023-04-26T08:18:31.567Z,7.20
2023-04-26T08:20:58.308Z,7.30
2023-04-26T08:23:25.480Z,7.40
2023-04-26T08:25:52.277Z,7.50
2023-04-26T08:28:19.101Z,7.50
2023-04-26T08:30:45.856Z,7.60
2023-04-26T08:33:14.034Z,7.80
2023-04-26T08:35:40.786Z,7.60
2023-04-26T08:38:07.777Z,7.60
2023-04-26T08:40:36.193Z,7.70
2023-04-26T08:43:02.960Z,7.80
2023-04-26T08:45:31.413Z,7.60
2023-04-26T08:48:04.636Z,7.70
2023-04-26T08:50:34.326Z,7.50
2023-04-26T08:53:01.248Z,7.40
2023-04-26T08:55:28.634Z,7.10
2023-04-26T08:57:56.597Z,6.90
2023-04-26T09:00:23.598Z,7.10
2023-04-26T09:02:51.502Z,7.70
2023-04-26T09:05:19.226Z,8.30
2023-04-26T09:07:48.059Z,9.00
2023-04-26T09:10:18.661Z,10.00
2023-04-26T09:12:45.576Z,10.20
2023-04-26T09:15:15.208Z,10.50
2023-04-26T09:17:44.110Z,10.60
2023-04-26T09:20:21.217Z,9.70
2023-04-26T09:22:50.544Z,9.40
2023-04-26T09:25:18.553Z,9.00
2023-04-26T09:27:45.911Z,8.80
2023-04-26T09:30:15.334Z,9.00
2023-04-26T09:32:51.205Z,9.00
2023-04-26T09:35:37.292Z,8.70
2023-04-26T09:38:12.143Z,9.00
2023-04-26T09:40:41.202Z,9.30
2023-04-26T09:43:09.448Z,9.40
2023-04-26T09:45:44.678Z,10.00
2023-04-26T09:48:16.132Z,10.70
2023-04-26T09:50:43.758Z,10.50
2023-04-26T09:53:24.384Z,10.80
2023-04-26T09:55:51.653Z,11.20
2023-04-26T09:58:18.653Z,10.70
2023-04-26T10:00:50.060Z,10.50
2023-04-26T10:03:18.902Z,9.80
2023-04-26T10:05:46.612Z,9.40
2023-04-26T10:08:15.248Z,9.10
2023-04-26T10:10:43.176Z,8.60
2023-04-26T10:13:12.034Z,8.00
2023-04-26T10:15:39.801Z,8.30
2023-04-26T10:18:06.699Z,8.90
2023-04-26T10:20:34.977Z,9.10
2023-04-26T10:23:05.257Z,8.90
2023-04-26T10:25:37.688Z,8.90
2023-04-26T10:28:04.914Z,8.90
2023-04-26T10:30:34.445Z,9.10
2023-04-26T10:33:16.657Z,9.20
2023-04-26T10:36:03.864Z,9.20
2023-04-26T10:38:32.152Z,8.80
2023-04-26T10:41:42.141Z,8.50
2023-04-26T10:44:38.761Z,8.30
2023-04-26T10:47:06.698Z,8.20
2023-04-26T10:49:45.127Z,8.00
2023-04-26T10:52:13.529Z,7.90
2023-04-26T10:54:51.742Z,7.90
2023-04-26T10:57:19.022Z,7.70
2023-04-26T11:00:25.544Z,7.80
2023-04-26T11:03:08.516Z,8.00
2023-04-26T11:05:47.651Z,8.20
2023-04-26T11:08:18.136Z,8.20
2023-04-26T11:10:51.554Z,8.20
2023-04-26T11:13:18.651Z,8.50
2023-04-26T11:15:45.464Z,8.70
2023-04-26T11:18:13.838Z,8.90
2023-04-26T11:20:40.639Z,8.90
2023-04-26T11:23:08.679Z,8.90
2023-04-26T11:25:38.757Z,8.70
2023-04-26T11:28:06.163Z,8.70
2023-04-26T11:30:33.248Z,8.90
2023-04-26T11:33:00.388Z,9.20
2023-04-26T11:35:28.989Z,9.40
2023-04-26T11:37:58.945Z,9.30
2023-04-26T11:40:30.184Z,9.60
2023-04-26T11:42:59.979Z,9.70
2023-04-26T11:45:27.173Z,9.70
2023-04-26T11:47:54.297Z,9.80
2023-04-26T11:50:21.766Z,10.00
2023-04-26T11:52:50.292Z,10.10
2023-04-26T11:55:17.075Z,10.30
2023-04-26T11:57:45.957Z,10.40
2023-04-26T12:00:13.452Z,10.70
2023-04-26T12:02:44.000Z,11.00
2023-04-26T12:05:10.953Z,10.80
2023-04-26T12:07:38.116Z,10.90
2023-04-26T12:10:19.977Z,11.10
2023-04-26T12:12:50.569Z,11.30
2023-04-26T12:15:18.201Z,11.80
2023-04-26T12:17:56.222Z,12.00
2023-04-26T12:20:34.450Z,12.00
2023-04-26T12:23:04.529Z,12.00
2023-04-26T12:25:33.878Z,11.50
2023-04-26T12:28:00.874Z,11.20
2023-04-26T12:30:28.664Z,10.90
2023-04-26T12:33:05.757Z,10.60
2023-04-26T12:35:42.217Z,10.30
2023-04-26T12:38:09.022Z,9.90
2023-04-26T12:40:37.108Z,9.50
2023-04-26T12:43:03.986Z,9.40
2023-04-26T12:45:30.867Z,9.20
2023-04-26T12:47:57.701Z,9.10
2023-04-26T12:50:24.608Z,9.10
2023-04-26T12:52:51.731Z,9.10
2023-04-26T12:55:19.625Z,9.20
2023-04-26T12:57:47.918Z,9.50
2023-04-26T13:00:16.577Z,9.80
2023-04-26T13:02:44.212Z,9.90
2023-04-26T13:05:14.293Z,9.90
2023-04-26T13:07:43.635Z,10.00
2023-04-26T13:10:12.623Z,10.00
2023-04-26T13:12:39.845Z,10.20
2023-04-26T13:15:09.108Z,10.90
2023-04-26T13:17:36.903Z,11.80
2023-04-26T13:20:04.395Z,11.30
2023-04-26T13:22:31.139Z,11.30
2023-04-26T13:24:57.912Z,11.50
2023-04-26T13:27:24.750Z,12.00
2023-04-26T13:29:57.455Z,11.60
2023-04-26T13:32:25.793Z,11.40
2023-04-26T13:34:53.941Z,11.20
2023-04-26T13:37:21.388Z,11.00
2023-04-26T13:39:48.567Z,11.20
2023-04-26T13:42:16.126Z,10.80
2023-04-26T13:44:43.041Z,10.40
2023-04-26T13:47:10.050Z,11.00
2023-04-26T13:49:38.633Z,10.50
2023-04-26T13:52:05.523Z,10.40
2023-04-26T13:54:32.305Z,11.00
2023-04-26T13:56:59.063Z,11.70
2023-04-26T13:59:25.874Z,11.60
2023-04-26T14:01:55.146Z,11.30
2023-04-26T14:04:24.085Z,11.60
2023-04-26T14:06:52.765Z,11.60
2023-04-26T14:09:22.873Z,11.60
2023-04-26T14:12:00.568Z,12.00
2023-04-26T14:14:34.619Z,12.30
2023-04-26T14:17:01.457Z,12.10
2023-04-26T14:19:28.173Z,12.40
2023-04-26T14:21:56.534Z,12.50
2023-04-26T14:24:23.285Z,12.00
2023-04-26T14:27:00.545Z,11.60
2023-04-26T14:29:27.293Z,10.90
2023-04-26T14:31:54.062Z,10.70
2023-04-26T14:34:23.821Z,10.90
2023-04-26T14:36:50.526Z,11.00
2023-04-26T14:39:18.620Z,10.40
2023-04-26T14:41:45.380Z,10.00
2023-04-26T14:44:12.119Z,9.60
2023-04-26T14:46:38.911Z,9.70
2023-04-26T14:49:05.722Z,9.80
2023-04-26T14:51:32.529Z,10.00
2023-04-26T14:53:59.280Z,9.70
2023-04-26T14:56:32.553Z,9.50
2023-04-26T14:58:59.314Z,9.50
2023-04-26T15:01:26.113Z,9.50
2023-04-26T15:03:53.212Z,9.60
2023-04-26T15:06:20.042Z,9.60
2023-04-26T15:08:46.797Z,9.20
2023-04-26T15:11:13.582Z,9.20
2023-04-26T15:13:42.025Z,9.10
2023-04-26T15:16:08.910Z,8.80
2023-04-26T15:18:35.771Z,8.70
2023-04-26T15:21:02.556Z,8.60
2023-04-26T15:23:29.296Z,8.40
2023-04-26T15:25:56.078Z,8.40
2023-04-26T15:28:22.781Z,8.20
2023-04-26T15:30:51.122Z,8.00
2023-04-26T15:33:18.119Z,7.90
2023-04-26T15:35:45.118Z,7.80
2023-04-26T15:38:11.884Z,7.70
2023-04-26T15:40:38.642Z,7.60
2023-04-26T15:43:05.408Z,7.50
2023-04-26T15:45:32.135Z,7.40
2023-04-26T15:48:00.354Z,7.40
2023-04-26T15:50:27.116Z,7.40
2023-04-26T15:52:54.108Z,7.40
2023-04-26T15:55:20.946Z,7.40
2023-04-26T15:57:47.676Z,7.50
2023-04-26T16:00:15.158Z,7.60
2023-04-26T16:02:42.257Z,7.50
2023-04-26T16:05:10.650Z,7.50
2023-04-26T16:07:37.890Z,7.50
2023-04-26T16:10:05.447Z,7.50
2023-04-26T16:12:32.304Z,7.60
2023-04-26T16:14:59.084Z,7.50
2023-04-26T16:17:25.910Z,7.50
2023-04-26T16:19:52.735Z,7.40
2023-04-26T16:22:20.970Z,7.40
2023-04-26T16:24:47.807Z,7.40
2023-04-26T16:27:14.567Z,7.50
2023-04-26T16:29:43.932Z,7.50
2023-04-26T16:32:10.662Z,7.50
2023-04-26T16:34:37.414Z,7.50
2023-04-26T16:37:04.176Z,7.50
2023-04-26T16:39:32.313Z,7.50
2023-04-26T16:41:59.331Z,7.50
2023-04-26T16:44:26.198Z,7.50
2023-04-26T16:46:52.967Z,7.50
2023-04-26T16:49:19.808Z,7.50
2023-04-26T16:51:46.519Z,7.50
2023-04-26T16:54:13.313Z,7.50
2023-04-26T16:56:41.424Z,7.50
2023-04-26T16:59:08.238Z,7.60
2023-04-26T17:01:35.358Z,7.70
2023-04-26T17:04:02.273Z,7.80
2023-04-26T17:06:29.347Z,7.90
2023-04-26T17:08:56.106Z,7.80
2023-04-26T17:11:22.974Z,7.80
2023-04-26T17:13:51.110Z,7.70
2023-04-26T17:16:17.840Z,7.60
2023-04-26T17:18:46.545Z,7.50
2023-04-26T17:21:13.550Z,7.40
2023-04-26T17:23:47.527Z,7.30
2023-04-26T17:26:14.575Z,7.30
2023-04-26T17:28:41.341Z,7.30
2023-04-26T17:31:09.583Z,7.30
2023-04-26T17:33:36.435Z,7.30
2023-04-26T17:36:03.368Z,7.20
2023-04-26T17:38:30.146Z,7.20
2023-04-26T17:40:56.909Z,7.20
2023-04-26T17:43:23.758Z,7.20
2023-04-26T17:45:50.563Z,7.20
2023-04-26T17:48:18.733Z,7.20
2023-04-26T17:50:45.578Z,7.20
2023-04-26T17:53:12.360Z,7.10
2023-04-26T17:55:39.069Z,7.10
2023-04-26T17:58:05.859Z,7.10
2023-04-26T18:00:32.595Z,7.00
2023-04-26T18:02:59.558Z,7.00
2023-04-26T18:05:28.269Z,7.00
2023-04-26T18:07:55.077Z,6.90
2023-04-26T18:10:21.983Z,6.90
2023-04-26T18:12:48.752Z,6.90
2023-04-26T18:15:15.478Z,6.80
2023-04-26T18:17:42.254Z,6.70
2023-04-26T18:20:14.151Z,6.70
2023-04-26T18:22:42.289Z,6.60
2023-04-26T18:25:09.291Z,6.50
2023-04-26T18:27:36.062Z,6.50
2023-04-26T18:30:06.943Z,6.40
2023-04-26T18:32:33.713Z,6.40
2023-04-26T18:35:00.509Z,6.40
2023-04-26T18:37:27.270Z,6.30
2023-04-26T18:39:55.445Z,6.20
2023-04-26T18:42:22.244Z,6.20
2023-04-26T18:44:48.960Z,6.10
2023-04-26T18:47:15.787Z,6.10
2023-04-26T18:49:42.815Z,6.00
2023-04-26T18:52:09.543Z,6.00
2023-04-26T18:54:36.404Z,5.90
2023-04-26T18:57:04.523Z,5.90
2023-04-26T18:59:31.249Z,5.90
2023-04-26T19:01:57.987Z,5.80
2023-04-26T19:04:25.139Z,5.80
2023-04-26T19:06:52.243Z,5.70
2023-04-26T19:09:19.010Z,5.70
2023-04-26T19:11:45.739Z,5.70
2023-04-26T19:14:13.874Z,5.60
2023-04-26T19:16:40.612Z,5.50
2023-04-26T19:19:07.358Z,5.50
2023-04-26T19:21:34.799Z,5.50
2023-04-26T19:24:01.540Z,5.50
2023-04-26T19:26:28.307Z,5.50
2023-04-26T19:28:55.078Z,5.50
2023-04-26T19:31:23.216Z,5.40
2023-04-26T19:33:50.052Z,5.40
2023-04-26T19:36:16.794Z,5.40
2023-04-26T19:38:43.558Z,5.40
2023-04-26T19:41:10.349Z,5.30
2023-04-26T19:43:37.337Z,5.30
2023-04-26T19:46:11.260Z,5.30
2023-04-26T19:48:39.507Z,5.20
2023-04-26T19:51:06.258Z,5.20
2023-04-26T19:53:33.495Z,5.10
2023-04-26T19:56:00.217Z,5.10
2023-04-26T19:58:27.092Z,5.10
2023-04-26T20:00:54.006Z,5.10
2023-04-26T20:03:21.018Z,5.00
2023-04-26T20:05:49.239Z,5.00
2023-04-26T20:08:15.970Z,4.90
2023-04-26T20:10:42.804Z,4.90
2023-04-26T20:13:09.509Z,4.80
2023-04-26T20:15:36.291Z,4.80
2023-04-26T20:18:03.156Z,4.70
2023-04-26T20:20:30.016Z,4.60
2023-04-26T20:22:58.192Z,4.50
2023-04-26T20:25:24.954Z,4.40
2023-04-26T20:27:51.764Z,4.40
2023-04-26T20:30:18.901Z,4.30
2023-04-26T20:32:45.762Z,4.30
2023-04-26T20:35:12.559Z,4.20
2023-04-26T20:37:39.324Z,4.10
2023-04-26T20:40:09.349Z,4.10
2023-04-26T20:42:36.107Z,4.00
2023-04-26T20:45:03.020Z,3.90
2023-04-26T20:47:29.892Z,3.90
2023-04-26T20:49:57.149Z,3.80
2023-04-26T20:52:24.030Z,3.70
2023-04-26T20:54:50.833Z,3.60
2023-04-26T20:57:18.935Z,3.40
2023-04-26T20:59:45.718Z,3.40
2023-04-26T21:02:12.487Z,3.30
2023-04-26T21:04:39.461Z,3.20
2023-04-26T21:07:06.532Z,3.10
2023-04-26T21:09:33.542Z,3.00
2023-04-26T21:12:00.317Z,3.00
2023-04-26T21:14:28.514Z,2.90
2023-04-26T21:16:55.364Z,2.90
2023-04-26T21:19:22.179Z,2.80
2023-04-26T21:21:48.948Z,2.70
2023-04-26T21:24:15.719Z,2.80
2023-04-26T21:26:42.427Z,2.80
2023-04-26T21:29:09.364Z,2.90
2023-04-26T21:31:37.773Z,2.80
2023-04-26T21:34:05.030Z,2.80
2023-04-26T21:36:33.292Z,2.80
2023-04-26T21:39:00.341Z,2.80
2023-04-26T21:41:27.375Z,2.70
2023-04-26T21:43:54.274Z,2.70
2023-04-26T21:46:21.061Z,2.70
2023-04-26T21:48:49.210Z,2.70
2023-04-26T21:51:15.964Z,2.60
2023-04-26T21:53:42.719Z,2.50
2023-04-26T21:56:09.530Z,2.50
2023-04-26T21:58:36.299Z,2.40
2023-04-26T22:01:10.976Z,2.40
2023-04-26T22:03:38.426Z,2.30
2023-04-26T22:06:07.971Z,2.20
2023-04-26T22:08:37.807Z,2.20
2023-04-26T22:11:04.892Z,2.20
2023-04-26T22:13:31.876Z,2.20
2023-04-26T22:15:58.726Z,2.20
2023-04-26T22:18:25.660Z,2.20
2023-04-26T22:20:52.462Z,2.20
2023-04-26T22:23:20.620Z,2.10
2023-04-26T22:25:47.422Z,2.10
2023-04-26T22:28:14.166Z,2.10
2023-04-26T22:30:40.880Z,2.10
2023-04-26T22:33:07.689Z,2.00
2023-04-26T22:35:35.015Z,2.00
2023-04-26T22:38:01.849Z,2.10
2023-04-26T22:40:29.941Z,2.00
2023-04-26T22:42:56.744Z,1.90
2023-04-26T22:45:23.638Z,1.90
2023-04-26T22:47:50.470Z,1.80
2023-04-26T22:50:17.243Z,1.80
2023-04-26T22:52:44.005Z,1.70
2023-04-26T22:55:10.899Z,1.70
2023-04-26T22:57:38.971Z,1.60
2023-04-26T23:00:06.847Z,1.60
2023-04-26T23:02:33.597Z,1.60
2023-04-26T23:05:00.544Z,1.60
2023-04-26T23:07:27.312Z,1.60
2023-04-26T23:09:54.108Z,1.60
2023-04-26T23:12:20.876Z,1.60
2023-04-26T23:14:49.044Z,1.60
2023-04-26T23:17:15.870Z,1.60
2023-04-26T23:19:42.747Z,1.50
2023-04-26T23:22:09.746Z,1.50
2023-04-26T23:24:36.517Z,1.40
2023-04-26T23:27:03.241Z,1.30
2023-04-26T23:29:30.075Z,1.30
2023-04-26T23:31:58.350Z,1.20
2023-04-26T23:34:25.280Z,1.30
2023-04-26T23:36:52.022Z,1.20
2023-04-26T23:39:18.783Z,1.20
2023-04-26T23:41:45.780Z,1.30
2023-04-26T23:44:15.103Z,1.30
2023-04-26T23:46:41.873Z,1.40
2023-04-26T23:49:10.174Z,1.30
2023-04-26T23:51:38.818Z,1.30
2023-04-26T23:54:05.631Z,1.20
2023-04-26T23:56:32.350Z,1.10
2023-04-26T23:58:59.084Z,1.10
